Time;durP1;ratioP1;P1;durP2;ratioP2;P2;SDS_P1;SDS_P2;PMS_P1;PMS_P2;Temp;Humidity;BMP_temperature;BMP_pressure;BME280_temperature;BME280_humidity;BME280_pressure;Samples;Min_cycle;Max_cycle;Signal;HPM_P1;HPM_P2
2022/07/01 00:00:31;;;;;;;9.27;4.68;;;11.00;99.90;;;;;;5052020;28;20025;-69
2022/07/01 00:02:58;;;;;;;11.80;5.50;;;11.00;99.90;;;;;;5047014;28;20489;-69
2022/07/01 00:05:25;;;;;;;10.93;5.30;;;11.10;99.90;;;;;;5049160;28;20036;-69
2022/07/01 00:07:53;;;;;;;8.82;5.88;;;11.10;99.90;;;;;;5041385;28;20021;-69
2022/07/01 00:10:20;;;;;;;13.48;5.53;;;11.20;99.90;;;;;;5053546;28;20429;-70
2022/07/01 00:12:47;;;;;;;7.05;4.93;;;11.30;99.90;;;;;;5044999;28;20072;-69
2022/07/01 00:15:15;;;;;;;14.02;6.68;;;11.40;99.90;;;;;;5045895;28;20478;-69
2022/07/01 00:17:43;;;;;;;11.73;5.72;;;11.30;99.90;;;;;;5041916;28;20021;-69
2022/07/01 00:20:11;;;;;;;7.88;5.78;;;11.30;99.90;;;;;;5037745;28;20517;-69
2022/07/01 00:22:38;;;;;;;9.52;5.57;;;11.30;99.90;;;;;;5039552;28;20107;-69
2022/07/01 00:25:07;;;;;;;10.63;5.47;;;11.40;99.90;;;;;;5048976;28;20022;-69
2022/07/01 00:27:38;;;;;;;7.75;5.30;;;11.30;99.90;;;;;;5044347;28;20029;-70
2022/07/01 00:30:06;;;;;;;10.52;6.57;;;11.40;99.90;;;;;;5052970;28;20377;-70
2022/07/01 00:32:34;;;;;;;9.43;5.13;;;11.50;99.90;;;;;;5045303;28;20033;-70
2022/07/01 00:35:01;;;;;;;7.57;5.30;;;11.50;99.90;;;;;;5034799;28;20047;-70
2022/07/01 00:37:28;;;;;;;8.82;5.97;;;11.50;99.90;;;;;;5034801;28;20109;-71
2022/07/01 00:39:55;;;;;;;9.18;5.60;;;11.60;99.90;;;;;;5051694;28;20075;-70
2022/07/01 00:42:23;;;;;;;7.13;5.20;;;11.60;99.90;;;;;;5039375;28;20029;-70
2022/07/01 00:44:50;;;;;;;9.02;5.88;;;11.70;99.90;;;;;;5034348;28;20041;-70
2022/07/01 00:47:17;;;;;;;9.50;6.25;;;11.60;99.90;;;;;;5046470;28;20110;-70
2022/07/01 00:49:45;;;;;;;10.00;5.30;;;11.60;99.90;;;;;;5053506;28;20017;-71
2022/07/01 00:52:12;;;;;;;7.88;5.75;;;11.70;99.90;;;;;;5040386;28;20148;-71
2022/07/01 00:54:42;;;;;;;6.60;4.90;;;11.70;99.90;;;;;;5034083;28;20050;-70
2022/07/01 00:57:11;;;;;;;10.20;5.82;;;11.80;99.90;;;;;;5036002;28;20579;-70
2022/07/01 00:59:39;;;;;;;7.88;5.47;;;11.80;99.90;;;;;;5034198;28;20029;-70
2022/07/01 01:02:08;;;;;;;10.15;4.93;;;11.80;99.90;;;;;;5035641;28;20516;-71
2022/07/01 01:04:36;;;;;;;11.98;5.63;;;11.80;99.90;;;;;;5050963;28;20034;-69
2022/07/01 01:07:04;;;;;;;10.63;6.10;;;11.80;99.90;;;;;;5041354;28;20025;-70
2022/07/01 01:09:31;;;;;;;8.48;5.32;;;11.80;99.90;;;;;;5033634;28;20128;-69
2022/07/01 01:12:01;;;;;;;12.73;5.07;;;11.80;99.90;;;;;;5033705;28;20053;-70
2022/07/01 01:14:28;;;;;;;5.10;3.80;;;11.70;99.90;;;;;;5054218;28;20034;-69
2022/07/01 01:16:56;;;;;;;6.68;4.72;;;11.80;99.90;;;;;;5033980;28;20030;-69
2022/07/01 01:19:23;;;;;;;7.85;4.65;;;11.90;99.90;;;;;;5033123;28;20386;-70
2022/07/01 01:21:50;;;;;;;7.35;4.35;;;11.90;99.90;;;;;;5032966;28;20478;-70
2022/07/01 01:24:17;;;;;;;7.63;4.50;;;11.90;99.90;;;;;;5033358;28;20674;-70
2022/07/01 01:26:45;;;;;;;10.27;4.95;;;11.90;99.90;;;;;;5033743;28;20440;-70
2022/07/01 01:29:12;;;;;;;12.32;4.75;;;11.90;99.90;;;;;;5031950;28;20079;-70
2022/07/01 01:31:41;;;;;;;9.30;4.57;;;11.80;99.90;;;;;;5033571;28;20029;-70
2022/07/01 01:34:09;;;;;;;9.70;5.30;;;11.90;99.90;;;;;;5032529;28;20025;-70
2022/07/01 01:36:37;;;;;;;12.23;4.80;;;12.00;99.90;;;;;;5032825;28;20022;-69
2022/07/01 01:39:12;;;;;;;9.20;4.53;;;12.00;99.90;;;;;;5032232;28;20025;-69
2022/07/01 01:41:39;;;;;;;8.43;4.82;;;12.00;99.90;;;;;;5032673;28;20478;-69
2022/07/01 01:44:06;;;;;;;13.65;5.18;;;11.90;99.90;;;;;;5032464;28;20469;-69
2022/07/01 01:46:34;;;;;;;9.93;4.20;;;11.90;99.90;;;;;;5032381;28;20025;-69
2022/07/01 01:49:02;;;;;;;9.75;5.20;;;11.80;99.90;;;;;;5033073;28;20526;-69
2022/07/01 01:51:30;;;;;;;7.93;4.10;;;11.80;99.90;;;;;;5031752;28;20057;-69
2022/07/01 01:53:58;;;;;;;4.97;4.10;;;11.70;99.90;;;;;;5031753;28;20025;-69
2022/07/01 01:56:27;;;;;;;6.82;3.80;;;11.60;99.90;;;;;;5033044;28;20095;-69
2022/07/01 01:58:58;;;;;;;6.95;4.03;;;11.60;99.90;;;;;;5035675;28;20045;-69
2022/07/01 02:01:26;;;;;;;6.57;4.07;;;11.60;99.90;;;;;;5033601;28;20437;-68
2022/07/01 02:03:54;;;;;;;11.77;4.63;;;11.60;99.90;;;;;;5032389;28;20029;-69
2022/07/01 02:06:22;;;;;;;7.40;3.47;;;11.60;99.90;;;;;;5032364;28;20025;-69
2022/07/01 02:08:49;;;;;;;5.28;3.30;;;11.60;99.90;;;;;;5037703;28;20039;-69
2022/07/01 02:11:17;;;;;;;7.07;3.50;;;11.70;99.90;;;;;;5043766;28;20037;-69
2022/07/01 02:13:44;;;;;;;4.03;2.70;;;11.60;99.90;;;;;;5032240;28;20100;-69
2022/07/01 02:16:12;;;;;;;6.30;3.38;;;11.60;99.90;;;;;;5032307;28;20474;-69
2022/07/01 02:18:40;;;;;;;8.15;3.22;;;11.60;99.90;;;;;;5040405;28;20030;-69
2022/07/01 02:21:07;;;;;;;4.65;2.88;;;11.50;99.90;;;;;;5039900;28;20024;-69
2022/07/01 02:23:34;;;;;;;8.15;3.47;;;11.50;99.90;;;;;;5043908;28;20087;-69
2022/07/01 02:26:02;;;;;;;6.22;3.30;;;11.50;99.90;;;;;;5046428;28;20466;-69
2022/07/01 02:28:29;;;;;;;4.63;2.50;;;11.50;99.90;;;;;;5044629;28;20078;-68
2022/07/01 02:30:56;;;;;;;5.82;3.00;;;11.30;99.90;;;;;;5043881;28;20028;-68
2022/07/01 02:33:24;;;;;;;8.95;2.88;;;11.30;99.90;;;;;;5041669;28;20063;-69
2022/07/01 02:35:51;;;;;;;7.22;3.00;;;11.30;99.90;;;;;;5033874;28;20371;-69
2022/07/01 02:38:18;;;;;;;6.88;3.08;;;11.30;99.90;;;;;;5055450;28;20048;-69
2022/07/01 02:40:46;;;;;;;9.02;3.65;;;11.30;99.90;;;;;;5045203;28;20575;-69
2022/07/01 02:43:15;;;;;;;5.45;3.08;;;11.20;99.90;;;;;;5043882;28;20499;-69
2022/07/01 02:45:43;;;;;;;6.80;4.25;;;11.30;99.90;;;;;;5047452;28;20465;-69
2022/07/01 02:48:10;;;;;;;6.85;4.20;;;11.40;99.90;;;;;;5040974;28;20021;-69
2022/07/01 02:50:38;;;;;;;4.30;2.90;;;11.30;99.90;;;;;;5049847;28;20036;-69
2022/07/01 02:53:05;;;;;;;5.43;3.38;;;11.30;99.90;;;;;;5046331;28;20036;-69
2022/07/01 02:55:32;;;;;;;4.68;3.50;;;11.30;99.90;;;;;;5055280;28;20044;-69
2022/07/01 02:58:00;;;;;;;8.45;4.10;;;11.30;99.90;;;;;;5044434;28;20049;-69
2022/07/01 03:00:27;;;;;;;16.45;4.70;;;11.30;99.90;;;;;;5067319;28;20028;-69
2022/07/01 03:02:55;;;;;;;8.20;4.38;;;11.30;99.90;;;;;;5052611;28;20107;-69
2022/07/01 03:05:23;;;;;;;10.20;3.85;;;11.20;99.90;;;;;;5049680;28;20505;-69
2022/07/01 03:07:50;;;;;;;6.93;4.68;;;11.20;99.90;;;;;;5063480;28;20027;-69
2022/07/01 03:10:17;;;;;;;9.32;4.03;;;11.20;99.90;;;;;;5056392;28;20432;-69
2022/07/01 03:12:44;;;;;;;7.65;4.20;;;11.20;99.90;;;;;;5038896;28;20390;-69
2022/07/01 03:15:14;;;;;;;12.32;4.43;;;11.10;99.90;;;;;;5052281;28;20048;-69
2022/07/01 03:17:44;;;;;;;6.05;3.97;;;11.10;99.90;;;;;;5049530;28;20496;-69
2022/07/01 03:20:14;;;;;;;8.55;3.90;;;11.00;99.90;;;;;;5047598;28;20035;-69
2022/07/01 03:22:43;;;;;;;7.43;3.90;;;10.90;99.90;;;;;;5040404;28;20045;-69
2022/07/01 03:25:11;;;;;;;7.80;3.70;;;10.90;99.90;;;;;;5046986;28;20033;-69
2022/07/01 03:27:44;;;;;;;8.68;4.97;;;11.00;99.90;;;;;;5047646;28;20025;-69
2022/07/01 03:30:13;;;;;;;10.50;4.47;;;11.00;99.90;;;;;;5055167;28;20017;-68
2022/07/01 03:32:41;;;;;;;5.82;4.40;;;11.00;99.90;;;;;;5047264;28;20563;-69
2022/07/01 03:37:55;;;;;;;9.10;5.65;;;11.00;99.90;;;;;;5040107;28;20044;-69
2022/07/01 03:40:23;;;;;;;7.38;4.25;;;11.10;99.90;;;;;;5041250;28;20474;-69
2022/07/01 03:42:50;;;;;;;8.45;5.50;;;11.10;99.90;;;;;;5052107;28;20543;-69
2022/07/01 03:45:17;;;;;;;8.02;5.03;;;11.10;99.90;;;;;;5048037;28;20029;-69
2022/07/01 03:47:49;;;;;;;6.05;4.47;;;11.10;99.90;;;;;;5045229;28;20036;-70
2022/07/01 03:50:18;;;;;;;7.32;4.90;;;11.00;99.90;;;;;;5046445;28;20021;-70
2022/07/01 03:52:45;;;;;;;8.93;4.93;;;11.00;99.90;;;;;;5035533;28;20083;-69
2022/07/01 03:55:16;;;;;;;8.43;5.53;;;11.00;99.90;;;;;;5038848;28;20127;-69
2022/07/01 03:57:43;;;;;;;8.20;4.70;;;11.00;99.90;;;;;;5036398;28;20037;-69
2022/07/01 04:00:11;;;;;;;12.65;4.32;;;11.00;99.90;;;;;;5046559;28;20474;-69
2022/07/01 04:02:38;;;;;;;10.60;5.60;;;11.00;99.90;;;;;;5041950;28;20379;-69
2022/07/01 04:05:07;;;;;;;8.50;5.50;;;11.00;99.90;;;;;;5063319;28;20388;-69
2022/07/01 04:07:37;;;;;;;9.95;5.03;;;11.10;99.90;;;;;;5042328;28;20033;-70
2022/07/01 04:10:05;;;;;;;12.27;5.38;;;11.20;99.90;;;;;;5051828;28;20095;-71
2022/07/01 04:12:32;;;;;;;12.60;6.95;;;11.10;99.90;;;;;;5057223;28;20039;-71
2022/07/01 04:14:59;;;;;;;13.02;8.65;;;11.10;99.90;;;;;;5052423;28;20041;-71
2022/07/01 04:17:27;;;;;;;14.13;7.25;;;11.10;99.90;;;;;;5049444;28;20021;-71
2022/07/01 04:19:54;;;;;;;11.27;5.03;;;11.10;99.90;;;;;;5039013;28;20030;-70
2022/07/01 04:22:35;;;;;;;9.07;5.40;;;11.10;99.90;;;;;;5044686;28;20024;-70
2022/07/01 04:25:04;;;;;;;9.25;5.30;;;11.20;99.90;;;;;;5046101;28;20083;-69
2022/07/01 04:27:34;;;;;;;10.10;5.65;;;11.30;99.90;;;;;;5043982;28;20025;-69
2022/07/01 04:30:02;;;;;;;10.05;5.50;;;11.30;99.90;;;;;;5044994;28;20070;-69
2022/07/01 04:32:30;;;;;;;7.75;4.80;;;11.30;99.90;;;;;;5037317;28;20041;-70
2022/07/01 04:34:58;;;;;;;7.93;4.72;;;11.20;99.90;;;;;;5050803;28;20068;-70
2022/07/01 04:37:25;;;;;;;7.88;5.35;;;11.30;99.90;;;;;;5051116;28;20041;-69
2022/07/01 04:39:52;;;;;;;10.82;8.23;;;11.30;99.90;;;;;;5040387;28;20410;-69
2022/07/01 04:42:21;;;;;;;10.15;6.90;;;11.20;99.90;;;;;;5035286;28;20026;-69
2022/07/01 04:44:49;;;;;;;8.20;5.20;;;11.30;99.90;;;;;;5040022;28;20013;-69
2022/07/01 04:47:16;;;;;;;8.10;5.63;;;11.20;99.90;;;;;;5054022;28;20115;-69
2022/07/01 04:49:46;;;;;;;8.32;4.97;;;11.30;99.90;;;;;;5053306;28;20036;-69
2022/07/01 04:52:14;;;;;;;10.18;4.78;;;11.30;99.90;;;;;;5054039;28;20072;-68
2022/07/01 04:54:41;;;;;;;8.57;5.15;;;11.20;99.90;;;;;;5045654;28;20081;-68
2022/07/01 04:57:08;;;;;;;7.82;4.68;;;11.30;99.90;;;;;;5049954;28;20021;-68
2022/07/01 04:59:36;;;;;;;7.30;4.25;;;11.30;99.90;;;;;;5038829;28;20109;-68
2022/07/01 05:02:04;;;;;;;10.55;4.82;;;11.30;99.90;;;;;;5064654;28;20021;-68
2022/07/01 05:04:31;;;;;;;6.75;3.83;;;11.30;99.90;;;;;;5067214;28;20025;-69
2022/07/01 05:06:58;;;;;;;7.55;3.83;;;11.20;99.90;;;;;;5065410;28;20036;-69
2022/07/01 05:09:25;;;;;;;8.65;4.72;;;11.20;99.90;;;;;;5064034;28;20395;-68
2022/07/01 05:11:53;;;;;;;5.47;3.83;;;11.20;99.90;;;;;;5047107;28;20025;-68
2022/07/01 05:14:20;;;;;;;7.47;3.60;;;11.20;99.90;;;;;;5054044;28;20029;-68
2022/07/01 05:16:48;;;;;;;6.22;3.75;;;11.30;99.90;;;;;;5040637;28;20112;-69
2022/07/01 05:22:00;;;;;;;7.15;4.05;;;11.30;99.90;;;;;;5038645;28;20102;-69
2022/07/01 05:24:30;;;;;;;7.47;4.30;;;11.30;99.90;;;;;;5051741;28;20040;-68
2022/07/01 05:26:59;;;;;;;8.05;4.43;;;11.30;99.90;;;;;;5046302;28;20025;-68
2022/07/01 05:29:26;;;;;;;7.80;3.97;;;11.30;99.90;;;;;;5057774;28;20021;-68
2022/07/01 05:31:54;;;;;;;6.97;3.58;;;11.30;99.90;;;;;;5054655;28;20071;-69
2022/07/01 05:34:22;;;;;;;11.32;4.63;;;11.30;99.90;;;;;;5047922;28;20112;-69
2022/07/01 05:36:49;;;;;;;5.80;4.55;;;11.30;99.90;;;;;;5045015;28;20037;-69
2022/07/01 05:39:16;;;;;;;11.55;5.13;;;11.30;99.90;;;;;;5032541;28;20037;-69
2022/07/01 05:41:45;;;;;;;8.13;4.30;;;11.30;99.90;;;;;;5051964;28;20105;-69
2022/07/01 05:44:12;;;;;;;10.18;5.38;;;11.30;99.90;;;;;;5049721;28;20017;-69
2022/07/01 05:46:40;;;;;;;9.05;5.20;;;11.30;99.90;;;;;;5051972;28;20087;-69
2022/07/01 05:49:07;;;;;;;9.27;4.38;;;11.40;99.90;;;;;;5045336;28;20025;-69
2022/07/01 05:51:35;;;;;;;6.53;4.22;;;11.40;99.90;;;;;;5050066;28;20024;-69
2022/07/01 05:54:02;;;;;;;9.98;5.38;;;11.30;99.90;;;;;;5046673;28;20033;-69
2022/07/01 05:56:29;;;;;;;11.95;6.53;;;11.30;99.90;;;;;;5034423;28;20053;-69
2022/07/01 05:58:57;;;;;;;9.85;5.72;;;11.30;99.90;;;;;;5045484;28;20121;-69
2022/07/01 06:01:24;;;;;;;9.38;4.78;;;11.20;99.90;;;;;;5042139;28;20024;-70
2022/07/01 06:03:51;;;;;;;9.82;5.32;;;11.20;99.90;;;;;;5046980;28;20033;-69
2022/07/01 06:06:19;;;;;;;10.68;6.22;;;11.30;99.90;;;;;;5043344;28;20401;-69
2022/07/01 06:08:47;;;;;;;7.20;5.05;;;11.20;99.90;;;;;;5061182;28;20022;-69
2022/07/01 06:11:14;;;;;;;7.20;5.15;;;11.20;99.90;;;;;;5032461;28;20021;-68
2022/07/01 06:13:42;;;;;;;7.10;5.55;;;11.20;99.90;;;;;;5035425;28;20032;-68
2022/07/01 06:16:09;;;;;;;7.82;5.15;;;11.20;99.90;;;;;;5050893;28;20041;-68
2022/07/01 06:18:36;;;;;;;10.35;6.18;;;11.10;99.90;;;;;;5051618;28;20393;-68
2022/07/01 06:21:03;;;;;;;9.75;5.55;;;11.10;99.90;;;;;;5066544;28;20025;-68
2022/07/01 06:23:31;;;;;;;8.38;5.60;;;11.10;99.90;;;;;;5055720;28;20029;-69
2022/07/01 06:25:58;;;;;;;9.88;5.63;;;11.10;99.90;;;;;;5043926;28;20017;-69
2022/07/01 06:28:29;;;;;;;8.93;5.20;;;11.10;99.90;;;;;;5058886;28;20087;-68
2022/07/01 06:30:58;;;;;;;7.72;5.85;;;11.10;99.90;;;;;;5032517;28;20092;-68
2022/07/01 06:33:27;;;;;;;6.93;5.90;;;11.10;99.90;;;;;;5039204;28;20100;-68
2022/07/01 06:35:54;;;;;;;9.23;5.35;;;11.10;99.90;;;;;;5055312;28;20105;-68
2022/07/01 06:38:21;;;;;;;6.82;5.43;;;11.20;99.90;;;;;;5056446;28;20032;-69
2022/07/01 06:41:26;;;;;;;7.85;5.20;;;11.10;99.90;;;;;;5056624;28;20030;-69
2022/07/01 06:43:36;;;;;;;9.73;6.57;;;11.10;99.90;;;;;;5064239;28;20025;-68
2022/07/01 06:46:04;;;;;;;12.27;6.65;;;11.10;99.90;;;;;;5052132;28;20104;-68
2022/07/01 06:48:31;;;;;;;11.35;7.10;;;11.10;99.90;;;;;;5043315;28;20060;-69
2022/07/01 06:50:59;;;;;;;9.90;6.78;;;11.10;99.90;;;;;;5038971;28;20032;-68
2022/07/01 06:53:26;;;;;;;9.18;7.22;;;11.10;99.90;;;;;;5052788;28;20489;-70
2022/07/01 06:55:53;;;;;;;13.98;7.05;;;11.10;99.90;;;;;;5060676;28;20067;-68
2022/07/01 06:58:21;;;;;;;9.95;6.85;;;11.10;99.90;;;;;;5050840;28;20405;-68
2022/07/01 07:00:48;;;;;;;10.40;7.80;;;11.10;99.90;;;;;;5048416;28;20017;-68
2022/07/01 07:03:15;;;;;;;10.98;7.35;;;11.10;99.90;;;;;;5048574;28;20489;-69
2022/07/01 07:05:43;;;;;;;11.63;7.82;;;11.10;99.90;;;;;;5052226;28;20035;-69
2022/07/01 07:08:10;;;;;;;13.07;9.20;;;11.10;99.90;;;;;;5054912;28;20083;-69
2022/07/01 07:10:37;;;;;;;17.30;8.18;;;11.10;99.90;;;;;;5038940;28;20029;-69
2022/07/01 07:13:05;;;;;;;10.93;8.18;;;11.10;99.90;;;;;;5050077;28;20088;-69
2022/07/01 07:15:33;;;;;;;11.88;8.18;;;11.10;99.90;;;;;;5049965;28;20029;-69
2022/07/01 07:18:00;;;;;;;12.73;7.65;;;11.20;99.90;;;;;;5056482;28;20087;-69
2022/07/01 07:20:28;;;;;;;11.05;7.35;;;11.10;99.90;;;;;;5038125;28;20175;-69
2022/07/01 07:22:55;;;;;;;8.80;7.10;;;11.10;99.90;;;;;;5049237;28;20020;-69
2022/07/01 07:25:23;;;;;;;13.32;7.40;;;11.10;99.90;;;;;;5051808;28;20071;-69
2022/07/01 07:27:50;;;;;;;8.13;6.55;;;11.10;99.90;;;;;;5035539;28;20044;-69
2022/07/01 07:30:18;;;;;;;10.80;6.65;;;11.10;99.90;;;;;;5046100;28;20434;-69
2022/07/01 07:32:45;;;;;;;9.23;7.13;;;11.00;99.90;;;;;;5037385;28;20029;-69
2022/07/01 07:35:13;;;;;;;10.00;7.20;;;11.10;99.90;;;;;;5032354;28;20032;-68
2022/07/01 07:37:41;;;;;;;11.55;6.82;;;11.00;99.90;;;;;;5053552;28;20425;-68
2022/07/01 07:40:12;;;;;;;11.05;6.97;;;11.00;99.90;;;;;;5054260;28;20033;-68
2022/07/01 07:42:42;;;;;;;7.95;6.25;;;11.00;99.90;;;;;;5053825;28;20033;-67
2022/07/01 07:45:11;;;;;;;9.30;6.47;;;10.90;99.90;;;;;;5050991;28;20052;-67
2022/07/01 07:47:39;;;;;;;11.07;7.10;;;11.00;99.90;;;;;;5055663;28;20067;-67
2022/07/01 07:50:06;;;;;;;6.90;6.03;;;10.90;99.90;;;;;;5048408;28;20021;-67
2022/07/01 07:52:34;;;;;;;10.23;6.43;;;10.90;99.90;;;;;;5048387;28;20033;-67
2022/07/01 07:55:02;;;;;;;9.77;6.72;;;10.90;99.90;;;;;;5053611;28;20386;-68
2022/07/01 07:57:30;;;;;;;13.05;6.95;;;10.90;99.90;;;;;;5056583;28;20028;-69
2022/07/01 07:59:57;;;;;;;12.20;8.10;;;10.90;99.90;;;;;;5054562;28;20033;-68
2022/07/01 08:02:24;;;;;;;14.65;9.98;;;10.90;99.90;;;;;;5052814;28;20056;-67
2022/07/01 08:04:52;;;;;;;14.15;8.38;;;10.90;99.90;;;;;;5054211;28;20504;-67
2022/07/01 08:07:19;;;;;;;14.65;8.88;;;10.90;99.90;;;;;;5052623;28;20013;-67
2022/07/01 08:09:48;;;;;;;15.18;11.55;;;10.80;99.90;;;;;;5059768;28;20540;-69
2022/07/01 08:12:16;;;;;;;13.35;9.90;;;10.80;99.90;;;;;;5046832;28;20023;-68
2022/07/01 08:14:44;;;;;;;14.55;9.68;;;10.80;99.90;;;;;;5053544;28;20026;-69
2022/07/01 08:17:11;;;;;;;15.88;9.90;;;10.80;99.90;;;;;;5054119;28;20021;-68
2022/07/01 08:19:38;;;;;;;13.00;11.07;;;10.80;99.90;;;;;;5062349;28;20042;-68
2022/07/01 08:22:06;;;;;;;13.82;9.48;;;10.90;99.90;;;;;;5042672;28;20107;-68
2022/07/01 08:24:33;;;;;;;16.02;10.75;;;11.00;99.90;;;;;;5067328;28;20039;-68
2022/07/01 08:27:01;;;;;;;24.75;17.85;;;11.00;99.90;;;;;;5049958;28;20025;-68
2022/07/01 08:29:28;;;;;;;16.88;12.52;;;11.00;99.90;;;;;;5045696;28;20035;-68
2022/07/01 08:31:59;;;;;;;15.95;10.48;;;11.00;99.90;;;;;;5049145;28;20029;-68
2022/07/01 08:34:27;;;;;;;15.70;11.10;;;11.00;99.90;;;;;;5036587;28;20444;-68
2022/07/01 08:36:54;;;;;;;13.07;10.82;;;11.00;99.90;;;;;;5052845;28;20033;-67
2022/07/01 08:39:22;;;;;;;13.50;9.57;;;11.00;99.90;;;;;;5040547;28;20035;-67
2022/07/01 08:41:49;;;;;;;14.10;9.43;;;11.00;99.90;;;;;;5053680;28;20113;-68
2022/07/01 08:44:16;;;;;;;13.30;9.82;;;11.00;99.90;;;;;;5053717;28;20033;-68
2022/07/01 08:46:44;;;;;;;16.88;9.00;;;11.00;99.90;;;;;;5056465;28;20063;-69
2022/07/01 08:49:13;;;;;;;11.18;9.20;;;11.10;99.90;;;;;;5058894;28;20055;-68
2022/07/01 08:51:40;;;;;;;14.73;9.73;;;11.10;99.90;;;;;;5032516;28;20083;-68
2022/07/01 08:54:08;;;;;;;12.48;9.40;;;11.10;99.90;;;;;;5033938;28;20029;-68
2022/07/01 08:56:41;;;;;;;17.05;9.02;;;11.10;99.90;;;;;;5048531;28;20047;-68
2022/07/01 08:59:12;;;;;;;12.02;10.18;;;11.10;99.90;;;;;;5053500;28;20549;-68
2022/07/01 09:01:41;;;;;;;12.15;10.77;;;11.10;99.90;;;;;;5036061;28;20056;-68
2022/07/01 09:04:21;;;;;;;14.73;10.73;;;11.10;99.90;;;;;;5050076;28;20032;-67
2022/07/01 09:06:49;;;;;;;11.32;8.82;;;11.10;99.90;;;;;;5064027;28;20028;-67
2022/07/01 09:09:17;;;;;;;12.40;9.02;;;11.20;99.90;;;;;;5055505;28;20211;-68
2022/07/01 09:11:53;;;;;;;11.32;8.80;;;11.20;99.90;;;;;;5048129;28;20028;-68
2022/07/01 09:14:23;;;;;;;11.77;8.52;;;11.20;99.90;;;;;;5052727;28;20029;-68
2022/07/01 09:16:55;;;;;;;16.58;9.98;;;11.20;99.90;;;;;;5067447;28;21147;-68
2022/07/01 09:19:24;;;;;;;13.82;10.38;;;11.20;99.90;;;;;;5061305;28;20033;-68
2022/07/01 09:21:58;;;;;;;16.45;9.57;;;11.20;99.90;;;;;;5066075;28;20047;-68
2022/07/01 09:24:33;;;;;;;13.00;9.73;;;11.10;99.90;;;;;;5052238;28;20029;-68
2022/07/01 09:27:10;;;;;;;10.73;9.15;;;11.10;99.90;;;;;;5057467;28;20104;-68
2022/07/01 09:29:40;;;;;;;14.65;8.95;;;11.10;99.90;;;;;;5041971;28;20029;-69
2022/07/01 09:32:13;;;;;;;11.35;8.60;;;11.10;99.90;;;;;;5037342;28;20049;-68
2022/07/01 09:34:54;;;;;;;12.48;9.02;;;11.10;99.90;;;;;;5047785;28;20413;-68
2022/07/01 09:37:24;;;;;;;11.10;7.70;;;11.10;99.90;;;;;;5060968;28;20079;-68
2022/07/01 09:39:58;;;;;;;12.60;8.32;;;11.10;99.90;;;;;;5065462;28;20024;-68
2022/07/01 09:42:27;;;;;;;11.20;8.75;;;11.10;99.90;;;;;;5048522;28;20099;-68
2022/07/01 09:45:11;;;;;;;11.65;8.73;;;11.00;99.90;;;;;;5050958;28;20374;-68
2022/07/01 09:47:42;;;;;;;13.77;8.32;;;11.10;99.90;;;;;;5051280;28;20051;-69
2022/07/01 09:50:11;;;;;;;13.63;9.00;;;11.10;99.90;;;;;;5051139;28;20021;-68
2022/07/01 09:52:41;;;;;;;14.20;8.50;;;11.00;99.90;;;;;;5051363;28;20037;-69
2022/07/01 09:55:09;;;;;;;12.23;8.38;;;11.00;99.90;;;;;;5050988;28;20051;-69
2022/07/01 09:57:36;;;;;;;14.00;9.80;;;11.00;99.90;;;;;;5032728;28;20534;-68
2022/07/01 10:00:07;;;;;;;10.35;8.40;;;11.00;99.90;;;;;;5042897;28;20019;-69
2022/07/01 10:02:35;;;;;;;12.40;9.43;;;11.00;99.90;;;;;;5046743;28;20040;-68
2022/07/01 10:05:14;;;;;;;14.77;10.13;;;11.10;99.90;;;;;;5041975;28;20028;-68
2022/07/01 10:07:54;;;;;;;16.48;10.05;;;11.00;99.90;;;;;;5045047;28;20041;-68
2022/07/01 10:10:28;;;;;;;14.05;10.07;;;11.10;99.90;;;;;;5052317;28;20052;-68
2022/07/01 10:12:57;;;;;;;13.88;11.32;;;11.10;99.90;;;;;;5065000;28;20036;-68
2022/07/01 10:15:25;;;;;;;14.68;11.60;;;11.10;99.90;;;;;;5072502;28;20039;-68
2022/07/01 10:17:55;;;;;;;13.95;11.52;;;11.10;99.90;;;;;;5050671;28;20033;-68
2022/07/01 10:20:28;;;;;;;13.40;10.90;;;11.10;99.90;;;;;;5047097;28;20036;-68
2022/07/01 10:23:04;;;;;;;20.92;10.25;;;11.10;99.90;;;;;;5035936;28;20049;-68
2022/07/01 10:25:33;;;;;;;16.40;10.25;;;11.10;99.90;;;;;;5032419;28;20021;-69
2022/07/01 10:28:28;;;;;;;19.10;11.55;;;11.10;99.90;;;;;;5049936;28;20083;-68
2022/07/01 10:31:01;;;;;;;14.10;12.10;;;11.10;99.90;;;;;;5060565;28;20025;-68
2022/07/01 10:33:41;;;;;;;17.60;13.20;;;11.10;99.90;;;;;;5050341;28;20037;-68
2022/07/01 10:36:09;;;;;;;15.80;9.75;;;11.10;99.90;;;;;;5031791;28;20021;-69
2022/07/01 10:39:14;;;;;;;13.18;10.48;;;11.00;99.90;;;;;;5042590;28;20389;-69
2022/07/01 10:41:46;;;;;;;12.45;9.93;;;11.10;99.90;;;;;;5050326;28;20029;-69
2022/07/01 10:44:15;;;;;;;14.50;10.55;;;11.00;99.90;;;;;;5052190;28;20493;-68
2022/07/01 10:46:56;;;;;;;16.40;10.57;;;11.00;99.90;;;;;;5033831;28;20029;-69
2022/07/01 10:49:36;;;;;;;16.20;10.90;;;11.10;99.90;;;;;;5032148;28;20108;-68
2022/07/01 10:52:19;;;;;;;11.85;10.60;;;11.00;99.90;;;;;;5050086;28;20042;-69
2022/07/01 10:54:48;;;;;;;15.77;11.20;;;11.00;99.90;;;;;;5066573;28;20052;-68
2022/07/01 10:57:22;;;;;;;14.30;10.50;;;11.00;99.90;;;;;;5048769;28;20283;-69
2022/07/01 10:59:56;;;;;;;13.70;10.57;;;11.00;99.90;;;;;;5044531;28;20261;-69
2022/07/01 11:02:31;;;;;;;15.52;10.80;;;11.10;99.90;;;;;;5043705;28;20033;-69
2022/07/01 11:05:07;;;;;;;14.45;11.13;;;11.00;99.90;;;;;;5049253;28;20116;-69
2022/07/01 11:07:37;;;;;;;13.32;10.98;;;11.00;99.90;;;;;;5048308;28;20028;-68
2022/07/01 11:10:07;;;;;;;12.90;10.73;;;11.00;99.90;;;;;;5051275;28;20021;-69
2022/07/01 11:12:35;;;;;;;15.13;11.25;;;11.10;99.90;;;;;;5044081;28;20477;-68
2022/07/01 11:15:10;;;;;;;11.68;10.27;;;11.10;99.90;;;;;;5052212;28;20063;-66
2022/07/01 11:17:44;;;;;;;17.27;11.02;;;11.10;99.90;;;;;;5049394;28;20029;-67
2022/07/01 11:20:12;;;;;;;10.55;9.50;;;11.10;99.90;;;;;;5049043;28;20086;-67
2022/07/01 11:22:39;;;;;;;13.85;10.55;;;11.10;99.90;;;;;;5056662;28;20078;-68
2022/07/01 11:25:10;;;;;;;13.45;10.52;;;11.10;99.90;;;;;;5059194;28;20029;-68
2022/07/01 11:27:38;;;;;;;13.85;10.52;;;11.10;99.90;;;;;;5053684;28;20055;-68
2022/07/01 11:30:11;;;;;;;12.43;10.00;;;11.20;99.90;;;;;;5043297;28;20035;-68
2022/07/01 11:32:49;;;;;;;13.65;10.68;;;11.10;99.90;;;;;;5040651;28;20037;-68
2022/07/01 11:41:05;;;;;;;13.77;10.70;;;11.20;99.90;;;;;;5043530;28;20546;-68
2022/07/01 11:43:35;;;;;;;14.48;11.50;;;11.10;99.90;;;;;;5051748;28;20028;-68
2022/07/01 11:46:04;;;;;;;12.85;10.90;;;11.20;99.90;;;;;;5057746;28;20055;-67
2022/07/01 11:48:36;;;;;;;11.88;10.60;;;11.10;99.90;;;;;;5046174;28;20067;-68
2022/07/01 11:51:11;;;;;;;14.00;9.85;;;11.10;99.90;;;;;;5065567;28;20029;-68
2022/07/01 11:53:43;;;;;;;12.57;11.27;;;11.20;99.90;;;;;;5060495;28;20025;-68
2022/07/01 11:56:11;;;;;;;12.90;11.45;;;11.20;99.90;;;;;;5048346;28;20094;-68
2022/07/01 11:58:44;;;;;;;13.52;10.82;;;11.30;99.90;;;;;;5050035;28;20033;-68
2022/07/01 12:01:11;;;;;;;14.18;10.25;;;11.30;99.90;;;;;;5053016;28;20071;-68
2022/07/01 12:03:39;;;;;;;16.55;10.63;;;11.20;99.90;;;;;;5060441;28;20033;-68
2022/07/01 12:06:06;;;;;;;13.30;9.68;;;11.20;99.90;;;;;;5057608;28;20025;-68
2022/07/01 12:08:34;;;;;;;12.55;10.50;;;11.20;99.90;;;;;;5071862;28;20081;-68
2022/07/01 12:11:02;;;;;;;17.33;11.63;;;11.10;99.90;;;;;;5073636;28;20020;-68
2022/07/01 12:13:29;;;;;;;12.55;11.25;;;11.10;99.90;;;;;;5055552;28;20382;-69
2022/07/01 12:16:10;;;;;;;25.17;13.90;;;11.00;99.90;;;;;;5046770;28;20071;-69
2022/07/01 12:18:38;;;;;;;22.05;12.52;;;11.00;99.90;;;;;;5067923;28;20040;-69
2022/07/01 12:21:06;;;;;;;13.15;10.60;;;11.00;99.90;;;;;;5061425;28;20485;-69
2022/07/01 12:23:36;;;;;;;14.70;11.55;;;11.00;99.90;;;;;;5061577;28;20041;-69
2022/07/01 12:26:05;;;;;;;14.18;11.32;;;11.00;99.90;;;;;;5061258;28;20020;-69
2022/07/01 12:28:38;;;;;;;13.27;10.63;;;11.00;99.90;;;;;;5062350;28;20744;-68
2022/07/01 12:31:08;;;;;;;12.18;9.55;;;11.10;99.90;;;;;;5058925;28;20025;-68
2022/07/01 12:33:48;;;;;;;10.15;8.57;;;11.00;99.90;;;;;;5056098;28;20024;-68
2022/07/01 12:36:15;;;;;;;10.45;8.82;;;11.00;99.90;;;;;;5041921;28;20144;-68
2022/07/01 12:38:43;;;;;;;12.57;10.38;;;11.00;99.90;;;;;;5040832;28;20033;-67
2022/07/01 12:41:35;;;;;;;13.15;10.00;;;11.10;99.90;;;;;;5054154;28;20025;-67
2022/07/01 12:44:07;;;;;;;10.75;8.88;;;11.10;99.90;;;;;;5049606;28;20089;-67
2022/07/01 12:46:34;;;;;;;11.43;8.80;;;11.10;99.90;;;;;;5050371;28;20401;-67
2022/07/01 12:49:01;;;;;;;8.32;7.53;;;11.10;99.90;;;;;;5064693;28;20108;-69
2022/07/01 12:51:34;;;;;;;11.98;8.55;;;11.10;99.90;;;;;;5057584;28;20052;-69
2022/07/01 12:54:02;;;;;;;9.43;7.68;;;11.00;99.90;;;;;;5044114;28;20398;-67
2022/07/01 12:56:30;;;;;;;9.20;8.20;;;11.10;99.90;;;;;;5047733;28;20044;-67
2022/07/01 12:58:57;;;;;;;8.32;7.43;;;11.10;99.90;;;;;;5060837;28;20508;-67